createdAt,value
2019-05-14T00:00:21.785Z,5.33
2019-05-14T00:02:48.816Z,8.15
2019-05-14T00:05:15.743Z,6.35
2019-05-14T00:07:42.764Z,4.65
2019-05-14T00:10:11.903Z,5.87
2019-05-14T00:12:39.157Z,5.47
2019-05-14T00:15:06.107Z,4.00
2019-05-14T00:17:33.072Z,5.55
2019-05-14T00:20:07.475Z,4.85
2019-05-14T00:22:28.789Z,7.85
2019-05-14T00:24:55.744Z,8.40
2019-05-14T00:27:22.734Z,5.62
2019-05-14T00:29:51.573Z,12.10
2019-05-14T00:32:18.413Z,5.28
2019-05-14T00:34:45.372Z,5.10
2019-05-14T00:37:12.337Z,5.00
2019-05-14T00:39:41.346Z,7.03
2019-05-14T00:42:08.054Z,8.73
2019-05-14T00:44:35.018Z,7.47
2019-05-14T00:47:02.274Z,6.28
2019-05-14T00:49:31.554Z,9.05
2019-05-14T00:51:58.282Z,4.90
2019-05-14T00:54:25.230Z,7.17
2019-05-14T00:56:52.296Z,5.08
2019-05-14T00:59:21.498Z,8.50
2019-05-14T01:01:47.974Z,8.03
2019-05-14T01:04:14.935Z,8.13
2019-05-14T01:06:42.196Z,8.10
2019-05-14T01:09:11.459Z,4.75
2019-05-14T01:11:38.297Z,7.45
2019-05-14T01:14:05.229Z,8.68
2019-05-14T01:16:32.184Z,3.77
2019-05-14T01:18:59.126Z,6.53
2019-05-14T01:21:26.082Z,4.00
2019-05-14T01:23:53.045Z,10.68
2019-05-14T01:26:21.787Z,7.35
2019-05-14T01:28:48.745Z,8.70
2019-05-14T01:31:15.676Z,8.33
2019-05-14T01:33:42.782Z,8.75
2019-05-14T01:36:10.267Z,6.72
2019-05-14T01:38:38.558Z,7.50
2019-05-14T01:41:05.497Z,4.20
2019-05-14T01:43:32.453Z,10.13
2019-05-14T01:46:02.122Z,4.92
2019-05-14T01:48:31.289Z,6.78
2019-05-14T01:50:58.141Z,7.37
2019-05-14T01:53:25.088Z,4.92
2019-05-14T01:55:52.254Z,4.97
2019-05-14T01:58:19.374Z,6.17
2019-05-14T02:00:46.324Z,7.70
2019-05-14T02:03:13.269Z,5.85
2019-05-14T02:05:41.632Z,6.08
2019-05-14T02:08:09.009Z,12.23
2019-05-14T02:10:35.969Z,8.18
2019-05-14T02:13:02.928Z,7.67
2019-05-14T02:15:39.059Z,6.35
2019-05-14T02:17:58.669Z,8.75
2019-05-14T02:20:25.601Z,8.20
2019-05-14T02:22:52.582Z,11.20
2019-05-14T02:25:21.542Z,9.33
2019-05-14T02:27:48.271Z,7.10
2019-05-14T02:30:15.228Z,8.78
2019-05-14T02:32:42.169Z,10.15
2019-05-14T02:35:10.069Z,13.55
2019-05-14T02:37:40.057Z,10.30
2019-05-14T02:40:09.615Z,11.83
2019-05-14T02:42:35.194Z,11.35
2019-05-14T02:45:03.434Z,11.90
2019-05-14T02:49:59.000Z,16.87
2019-05-14T02:52:29.011Z,17.95
2019-05-14T02:54:55.084Z,17.10
2019-05-14T02:57:21.962Z,15.30
2019-05-14T02:59:50.113Z,16.77
2019-05-14T03:02:18.774Z,12.35
2019-05-14T03:04:46.022Z,13.13
2019-05-14T03:07:12.982Z,8.90
2019-05-14T03:09:40.605Z,9.23
2019-05-14T03:12:09.981Z,7.62
2019-05-14T03:14:39.620Z,7.53
2019-05-14T03:17:21.953Z,5.60
2019-05-14T03:19:49.578Z,7.60
2019-05-14T03:22:24.785Z,6.35
2019-05-14T03:24:45.698Z,5.67
2019-05-14T03:27:12.630Z,7.10
2019-05-14T03:29:40.273Z,7.55
2019-05-14T03:32:13.204Z,5.65
2019-05-14T03:34:42.097Z,3.87
2019-05-14T03:37:05.353Z,5.85
2019-05-14T03:39:32.285Z,7.00
2019-05-14T03:41:59.284Z,4.47
2019-05-14T03:44:48.775Z,9.70
2019-05-14T03:47:14.727Z,4.92
2019-05-14T03:49:41.661Z,4.25
2019-05-14T03:52:09.672Z,8.23
2019-05-14T03:54:40.243Z,6.28
2019-05-14T03:57:09.249Z,7.03
2019-05-14T03:59:34.768Z,10.38
2019-05-14T04:02:01.879Z,8.90
2019-05-14T04:04:29.964Z,4.47
2019-05-14T04:06:59.926Z,10.37
2019-05-14T04:09:29.377Z,7.70
2019-05-14T04:11:55.496Z,6.20
2019-05-14T04:14:22.462Z,6.45
2019-05-14T04:17:14.402Z,3.98
2019-05-14T04:19:44.627Z,8.68
2019-05-14T04:22:12.391Z,4.45
2019-05-14T04:24:41.487Z,3.72
2019-05-14T04:27:12.875Z,4.10
2019-05-14T04:29:39.573Z,4.60
2019-05-14T04:32:09.428Z,4.95
2019-05-14T04:34:39.686Z,7.03
2019-05-14T04:37:09.659Z,7.53
2019-05-14T04:39:39.615Z,5.37
2019-05-14T04:42:09.245Z,6.15
2019-05-14T04:44:34.649Z,5.92
2019-05-14T04:47:21.680Z,4.45
2019-05-14T04:49:30.345Z,3.65
2019-05-14T04:51:59.553Z,7.20
2019-05-14T04:54:26.035Z,5.62
2019-05-14T04:57:12.775Z,6.33
2019-05-14T04:59:40.165Z,7.10
2019-05-14T05:02:09.593Z,5.87
2019-05-14T05:04:36.119Z,5.50
2019-05-14T05:07:03.067Z,3.65
2019-05-14T05:09:30.001Z,5.60
2019-05-14T05:11:59.851Z,5.35
2019-05-14T05:14:25.703Z,5.85
2019-05-14T05:16:52.671Z,5.47
2019-05-14T05:19:19.794Z,6.08
2019-05-14T05:21:48.075Z,10.63
2019-05-14T05:24:15.561Z,12.87
2019-05-14T05:26:42.533Z,24.90
2019-05-14T05:29:10.517Z,25.57
2019-05-14T05:31:38.237Z,19.35
2019-05-14T05:34:05.365Z,15.70
2019-05-14T05:36:32.297Z,10.40
2019-05-14T05:38:59.506Z,8.90
2019-05-14T05:41:28.227Z,5.97
2019-05-14T05:43:55.272Z,6.90
2019-05-14T05:46:22.252Z,5.17
2019-05-14T05:48:49.204Z,6.90
2019-05-14T05:51:18.418Z,9.10
2019-05-14T05:53:44.931Z,7.60
2019-05-14T05:56:13.607Z,6.72
2019-05-14T05:58:40.625Z,8.83
2019-05-14T06:01:09.991Z,6.47
2019-05-14T06:03:39.259Z,7.15
2019-05-14T06:06:06.185Z,14.98
2019-05-14T06:08:34.729Z,8.00
2019-05-14T06:11:01.727Z,9.68
2019-05-14T06:13:28.845Z,11.00
2019-05-14T06:15:58.871Z,11.22
2019-05-14T06:18:25.001Z,10.75
2019-05-14T06:20:51.977Z,14.07
2019-05-14T06:23:25.308Z,12.78
2019-05-14T06:26:12.021Z,12.33
2019-05-14T06:28:40.820Z,18.30
2019-05-14T06:31:09.825Z,15.32
2019-05-14T06:33:39.143Z,20.55
2019-05-14T06:36:05.315Z,16.62
2019-05-14T06:38:32.269Z,14.90
2019-05-14T06:40:59.546Z,12.33
2019-05-14T06:43:28.769Z,12.60
2019-05-14T06:45:55.423Z,16.90
2019-05-14T06:48:30.742Z,18.77
2019-05-14T06:50:51.113Z,10.68
2019-05-14T06:53:19.497Z,10.43
2019-05-14T06:55:48.389Z,9.25
2019-05-14T06:58:15.581Z,9.03
2019-05-14T07:00:42.635Z,7.17
2019-05-14T07:03:09.590Z,7.70
2019-05-14T07:05:38.856Z,8.85
2019-05-14T07:08:08.930Z,8.48
2019-05-14T07:10:35.360Z,8.50
2019-05-14T07:13:02.298Z,5.80
2019-05-14T07:15:29.281Z,7.22
2019-05-14T07:17:58.377Z,8.10
2019-05-14T07:20:25.065Z,7.47
2019-05-14T07:22:52.001Z,11.00
2019-05-14T07:25:20.089Z,4.58
2019-05-14T07:27:48.933Z,6.37
2019-05-14T07:30:19.185Z,7.47
2019-05-14T07:35:13.029Z,8.85
2019-05-14T07:37:52.969Z,5.00
2019-05-14T07:40:19.942Z,6.10
2019-05-14T07:42:48.710Z,8.23
2019-05-14T07:45:15.756Z,7.30
2019-05-14T07:47:42.782Z,6.28
2019-05-14T07:50:09.814Z,7.22
2019-05-14T07:52:44.927Z,6.17
2019-05-14T07:55:06.173Z,3.62
2019-05-14T07:57:34.238Z,7.58
2019-05-14T08:00:01.169Z,7.15
2019-05-14T08:02:29.024Z,6.08
2019-05-14T08:04:58.046Z,11.48
2019-05-14T08:07:25.048Z,4.50
2019-05-14T08:09:51.977Z,5.35
2019-05-14T08:12:19.387Z,8.88
2019-05-14T08:15:02.400Z,6.72
2019-05-14T08:17:18.858Z,5.12
2019-05-14T08:19:45.458Z,5.17
2019-05-14T08:22:12.572Z,7.30
2019-05-14T08:24:39.545Z,5.30
2019-05-14T08:27:08.370Z,7.70
2019-05-14T08:29:37.492Z,11.15
2019-05-14T08:32:04.013Z,8.88
2019-05-14T08:34:32.357Z,3.58
2019-05-14T08:37:03.879Z,5.40
2019-05-14T08:39:28.667Z,3.42
2019-05-14T08:42:03.621Z,7.10
2019-05-14T08:44:24.672Z,7.03
2019-05-14T08:46:51.618Z,5.30
2019-05-14T08:49:18.596Z,3.58
2019-05-14T08:51:45.577Z,6.75
2019-05-14T08:54:12.533Z,3.98
2019-05-14T08:56:39.462Z,3.35
2019-05-14T08:59:08.725Z,6.30
2019-05-14T09:01:35.234Z,4.15
2019-05-14T09:04:02.233Z,4.62
2019-05-14T09:06:29.212Z,5.53
2019-05-14T09:08:59.274Z,4.95
2019-05-14T09:11:44.598Z,4.62
2019-05-14T09:14:10.672Z,5.62
2019-05-14T09:16:45.520Z,7.22
2019-05-14T09:19:04.117Z,7.28
2019-05-14T09:21:31.160Z,5.47
2019-05-14T09:23:58.776Z,8.63
2019-05-14T09:26:28.350Z,8.20
2019-05-14T09:29:16.922Z,3.87
2019-05-14T09:31:30.790Z,2.92
2019-05-14T09:33:58.492Z,4.95
2019-05-14T09:36:25.645Z,4.62
2019-05-14T09:39:12.497Z,3.35
2019-05-14T09:41:39.507Z,5.83
2019-05-14T09:44:06.441Z,4.47
2019-05-14T09:46:33.481Z,5.08
2019-05-14T09:49:00.471Z,4.78
2019-05-14T09:51:43.991Z,4.97
2019-05-14T09:57:18.732Z,5.53
2019-05-14T09:59:47.992Z,3.75
2019-05-14T10:02:17.028Z,4.92
2019-05-14T10:04:45.147Z,5.80
2019-05-14T10:07:15.408Z,4.35
2019-05-14T10:09:41.393Z,7.05
2019-05-14T10:12:08.941Z,6.00
2019-05-14T10:14:36.149Z,7.53
2019-05-14T10:17:03.119Z,4.47
2019-05-14T10:19:30.081Z,5.22
2019-05-14T10:21:58.835Z,7.75
2019-05-14T10:24:25.778Z,6.53
2019-05-14T10:26:52.694Z,3.47
2019-05-14T10:29:19.644Z,8.85
2019-05-14T10:31:48.543Z,8.28
2019-05-14T10:34:19.018Z,12.60
2019-05-14T10:36:45.993Z,7.08
2019-05-14T10:39:14.259Z,6.22
2019-05-14T10:41:43.444Z,7.25
2019-05-14T10:44:10.559Z,6.55
2019-05-14T10:46:38.649Z,5.03
2019-05-14T10:49:16.494Z,6.17
2019-05-14T10:51:34.395Z,5.95
2019-05-14T10:54:16.892Z,6.37
2019-05-14T10:56:30.132Z,11.73
2019-05-14T10:58:58.443Z,7.92
2019-05-14T11:01:28.238Z,13.20
2019-05-14T11:03:54.470Z,9.00
2019-05-14T11:06:21.435Z,9.90
2019-05-14T11:08:49.121Z,7.90
2019-05-14T11:11:18.507Z,4.47
2019-05-14T11:13:45.277Z,6.35
2019-05-14T11:16:12.231Z,6.87
2019-05-14T11:18:40.004Z,6.17
2019-05-14T11:21:21.533Z,12.25
2019-05-14T11:23:38.418Z,8.13
2019-05-14T11:26:05.038Z,9.20
2019-05-14T11:28:32.037Z,8.60
2019-05-14T11:30:59.194Z,12.75
2019-05-14T11:33:26.134Z,4.72
2019-05-14T11:35:54.108Z,7.15
2019-05-14T11:38:29.741Z,8.13
2019-05-14T11:40:49.993Z,8.23
2019-05-14T11:43:16.933Z,8.18
2019-05-14T11:45:44.801Z,5.42
2019-05-14T11:48:11.731Z,5.70
2019-05-14T11:50:38.788Z,4.67
2019-05-14T11:53:05.709Z,7.75
2019-05-14T11:55:32.945Z,5.55
2019-05-14T11:57:59.913Z,4.05
2019-05-14T12:00:29.377Z,7.65
2019-05-14T12:02:55.625Z,4.65
2019-05-14T12:05:22.589Z,6.40
2019-05-14T12:07:49.509Z,5.05
2019-05-14T12:10:18.734Z,6.03
2019-05-14T12:12:46.030Z,4.35
2019-05-14T12:15:12.977Z,4.53
2019-05-14T12:17:39.917Z,6.12
2019-05-14T12:20:06.894Z,4.90
2019-05-14T12:22:33.833Z,5.17
2019-05-14T12:25:01.571Z,4.20
2019-05-14T12:27:28.615Z,5.78
2019-05-14T12:29:56.105Z,8.15
2019-05-14T12:32:23.102Z,4.65
2019-05-14T12:34:50.114Z,7.45
2019-05-14T12:37:18.532Z,7.42
2019-05-14T12:39:45.825Z,6.67
2019-05-14T12:42:12.789Z,3.67
2019-05-14T12:44:41.018Z,6.60
2019-05-14T12:47:09.446Z,3.67
2019-05-14T12:49:38.741Z,6.00
2019-05-14T12:52:19.103Z,7.40
2019-05-14T12:54:54.458Z,4.55
2019-05-14T12:57:22.425Z,3.75
2019-05-14T12:59:49.547Z,4.28
2019-05-14T13:02:18.733Z,5.55
2019-05-14T13:04:45.473Z,13.48
2019-05-14T13:07:25.863Z,6.03
2019-05-14T13:09:52.825Z,6.05
2019-05-14T13:12:20.465Z,6.05
2019-05-14T13:15:00.967Z,4.75
2019-05-14T13:17:28.167Z,9.35
2019-05-14T13:19:55.321Z,8.13
2019-05-14T13:22:37.995Z,3.83
2019-05-14T13:24:51.094Z,9.25
2019-05-14T13:27:19.271Z,6.10
2019-05-14T13:29:48.576Z,8.38
2019-05-14T13:32:15.259Z,9.55
2019-05-14T13:34:42.278Z,6.65
2019-05-14T13:37:09.317Z,6.03
2019-05-14T13:39:39.612Z,6.17
2019-05-14T13:42:24.877Z,4.55
2019-05-14T13:44:51.841Z,5.47
2019-05-14T13:47:18.778Z,5.25
2019-05-14T13:49:48.492Z,7.87
2019-05-14T13:52:14.499Z,5.12
2019-05-14T13:54:41.448Z,5.70
2019-05-14T13:57:11.565Z,6.87
2019-05-14T13:59:44.031Z,4.47
2019-05-14T14:02:05.940Z,3.75
2019-05-14T14:04:32.870Z,5.30
2019-05-14T14:07:01.029Z,8.85
2019-05-14T14:09:28.399Z,11.85
2019-05-14T14:11:58.614Z,8.85
2019-05-14T14:14:25.445Z,10.98
2019-05-14T14:16:52.406Z,7.37
2019-05-14T14:19:19.341Z,5.97
2019-05-14T14:22:06.043Z,8.45
2019-05-14T14:24:32.973Z,4.67
2019-05-14T14:26:59.929Z,6.53
2019-05-14T14:29:26.866Z,6.70
2019-05-14T14:31:53.816Z,8.68
2019-05-14T14:34:33.946Z,9.78
2019-05-14T14:37:00.914Z,12.37
2019-05-14T14:39:28.977Z,7.37
2019-05-14T14:41:58.301Z,4.80
2019-05-14T14:44:24.661Z,5.50
2019-05-14T14:46:51.600Z,8.98
2019-05-14T14:49:19.285Z,6.50
2019-05-14T14:51:48.957Z,4.30
2019-05-14T14:54:16.360Z,3.25
2019-05-14T14:56:43.581Z,5.67
2019-05-14T14:59:10.571Z,7.42
2019-05-14T15:01:40.263Z,7.90
2019-05-14T15:04:12.840Z,7.28
2019-05-14T15:06:35.109Z,2.98
2019-05-14T15:09:15.560Z,7.47
2019-05-14T15:11:42.565Z,11.25
2019-05-14T15:14:09.529Z,7.75
2019-05-14T15:16:39.164Z,6.85
2019-05-14T15:19:05.304Z,6.50
2019-05-14T15:21:32.245Z,6.72
2019-05-14T15:24:09.412Z,4.15
2019-05-14T15:26:28.832Z,6.33
2019-05-14T15:28:58.349Z,3.00
2019-05-14T15:31:25.540Z,5.87
2019-05-14T15:33:52.589Z,6.80
2019-05-14T15:36:19.831Z,4.17
2019-05-14T15:38:48.599Z,3.07
2019-05-14T15:41:15.822Z,3.55
2019-05-14T15:43:42.762Z,5.05
2019-05-14T15:46:09.729Z,4.47
2019-05-14T15:48:39.555Z,5.17
2019-05-14T15:51:05.434Z,7.03
2019-05-14T15:53:32.392Z,3.60
2019-05-14T15:55:59.320Z,3.92
2019-05-14T15:58:26.288Z,5.20
2019-05-14T16:01:14.159Z,5.53
2019-05-14T16:03:41.821Z,4.20
2019-05-14T16:06:09.143Z,6.62
2019-05-14T16:08:36.066Z,7.55
2019-05-14T16:11:05.618Z,9.78
2019-05-14T16:13:31.758Z,7.55
2019-05-14T16:15:58.705Z,10.68
2019-05-14T16:18:25.645Z,9.45
2019-05-14T16:20:52.603Z,5.72
2019-05-14T16:23:19.520Z,5.08
2019-05-14T16:25:48.280Z,7.92
2019-05-14T16:28:15.228Z,3.52
2019-05-14T16:30:42.194Z,5.47
2019-05-14T16:33:09.382Z,14.53
2019-05-14T16:35:39.100Z,6.78
2019-05-14T16:38:05.478Z,14.20
2019-05-14T16:40:32.437Z,22.77
2019-05-14T16:42:59.372Z,6.50
2019-05-14T16:45:28.745Z,7.40
2019-05-14T16:47:55.063Z,8.98
2019-05-14T16:50:22.017Z,20.88
2019-05-14T16:52:49.401Z,5.55
2019-05-14T16:55:24.654Z,7.53
2019-05-14T16:57:49.153Z,7.37
2019-05-14T17:00:18.394Z,14.80
2019-05-14T17:02:44.725Z,15.23
2019-05-14T17:05:12.082Z,7.33
2019-05-14T17:07:39.113Z,8.55
2019-05-14T17:10:08.247Z,11.25
2019-05-14T17:12:49.447Z,19.95
2019-05-14T17:15:04.438Z,28.57
2019-05-14T17:17:31.398Z,32.03
2019-05-14T17:19:58.765Z,15.50
2019-05-14T17:22:30.773Z,8.93
2019-05-14T17:24:54.795Z,15.63
2019-05-14T17:27:22.836Z,19.52
2019-05-14T17:29:49.781Z,19.10
2019-05-14T17:32:18.765Z,11.20
2019-05-14T17:34:45.482Z,9.65
2019-05-14T17:37:12.727Z,10.25
2019-05-14T17:39:40.675Z,9.95
2019-05-14T17:42:11.747Z,9.18
2019-05-14T17:44:38.660Z,7.67
2019-05-14T17:47:05.238Z,6.78
2019-05-14T17:49:54.944Z,9.88
2019-05-14T17:52:23.516Z,13.13
2019-05-14T17:54:50.476Z,12.35
2019-05-14T17:57:23.614Z,14.20
2019-05-14T17:59:46.178Z,16.37
2019-05-14T18:02:28.596Z,13.80
2019-05-14T18:04:57.060Z,14.55
2019-05-14T18:07:23.760Z,13.80
2019-05-14T18:09:50.797Z,12.82
2019-05-14T18:12:18.911Z,10.58
2019-05-14T18:14:48.085Z,15.60
2019-05-14T18:17:15.188Z,17.40
2019-05-14T18:19:42.124Z,14.83
2019-05-14T18:22:09.062Z,15.43
2019-05-14T18:24:35.997Z,16.80
2019-05-14T18:27:02.954Z,19.48
2019-05-14T18:29:29.899Z,22.50
2019-05-14T18:32:09.714Z,20.48
2019-05-14T18:34:38.994Z,20.82
2019-05-14T18:37:05.579Z,24.15
2019-05-14T18:39:32.621Z,25.90
2019-05-14T18:42:00.569Z,24.12
2019-05-14T18:44:28.455Z,23.32
2019-05-14T18:46:55.809Z,24.57
2019-05-14T18:49:22.756Z,25.70
2019-05-14T18:51:50.321Z,29.55
2019-05-14T18:54:17.597Z,33.38
2019-05-14T18:56:44.558Z,40.12
2019-05-14T18:59:11.508Z,41.60
2019-05-14T19:01:39.777Z,39.27
2019-05-14T19:04:08.301Z,41.83
2019-05-14T19:06:35.476Z,39.58
2019-05-14T19:09:04.309Z,42.20
2019-05-14T19:11:31.562Z,39.53
2019-05-14T19:13:58.537Z,40.67
2019-05-14T19:16:25.498Z,41.80
2019-05-14T19:18:52.450Z,38.80
2019-05-14T19:21:19.394Z,37.30
2019-05-14T19:23:46.338Z,36.73
2019-05-14T19:26:13.281Z,36.48
2019-05-14T19:28:40.238Z,32.38
2019-05-14T19:31:09.160Z,33.08
2019-05-14T19:33:37.894Z,34.55
2019-05-14T19:36:04.726Z,33.25
2019-05-14T19:38:45.223Z,31.70
2019-05-14T19:41:12.170Z,31.57
2019-05-14T19:43:59.564Z,36.13
2019-05-14T19:46:29.005Z,34.63
2019-05-14T19:48:55.482Z,38.25
2019-05-14T19:51:22.433Z,34.35
2019-05-14T19:54:12.454Z,33.25
2019-05-14T19:56:51.810Z,33.25
2019-05-14T19:59:09.075Z,33.83
2019-05-14T20:01:38.581Z,31.80
2019-05-14T20:04:05.102Z,25.82
2019-05-14T20:06:32.063Z,37.17
2019-05-14T20:08:59.194Z,34.92
2019-05-14T20:11:28.750Z,33.48
2019-05-14T20:13:55.088Z,33.67
2019-05-14T20:16:22.070Z,38.05
2019-05-14T20:18:55.343Z,39.05
2019-05-14T20:21:22.281Z,33.30
2019-05-14T20:23:49.235Z,35.88
2019-05-14T20:26:17.691Z,36.23
2019-05-14T20:28:44.823Z,37.80
2019-05-14T20:31:11.870Z,40.48
2019-05-14T20:33:38.901Z,37.70
2019-05-14T20:36:18.911Z,41.30
2019-05-14T20:38:59.058Z,36.75
2019-05-14T20:41:39.108Z,41.90
2019-05-14T20:44:06.224Z,40.60
2019-05-14T20:46:33.170Z,39.03
2019-05-14T20:49:00.106Z,44.30
2019-05-14T20:51:30.196Z,43.55
2019-05-14T20:53:58.083Z,47.00
2019-05-14T20:56:29.601Z,35.78
2019-05-14T20:59:11.877Z,34.70
2019-05-14T21:01:47.909Z,34.38
2019-05-14T21:04:14.923Z,39.23
2019-05-14T21:06:41.856Z,42.85
2019-05-14T21:09:08.813Z,29.15
2019-05-14T21:11:38.225Z,34.67
2019-05-14T21:14:04.976Z,30.85
2019-05-14T21:16:31.938Z,33.42
2019-05-14T21:18:59.287Z,33.60
2019-05-14T21:21:28.121Z,36.73
2019-05-14T21:23:55.005Z,32.42
2019-05-14T21:26:23.225Z,31.35
2019-05-14T21:29:03.103Z,35.03
2019-05-14T21:31:30.162Z,38.78
2019-05-14T21:33:58.664Z,35.33
2019-05-14T21:36:28.230Z,35.30
2019-05-14T21:38:54.708Z,30.32
2019-05-14T21:41:21.650Z,31.68
2019-05-14T21:44:01.694Z,34.08
2019-05-14T21:46:31.736Z,34.95
2019-05-14T21:48:58.925Z,37.78
2019-05-14T21:51:28.389Z,40.92
2019-05-14T21:53:58.761Z,34.88
2019-05-14T21:56:29.184Z,36.65
2019-05-14T21:58:58.573Z,28.45
2019-05-14T22:04:20.557Z,36.25
2019-05-14T22:06:49.088Z,30.37
2019-05-14T22:09:19.377Z,34.00
2019-05-14T22:11:48.463Z,34.58
2019-05-14T22:14:18.814Z,34.95
2019-05-14T22:16:45.865Z,29.80
2019-05-14T22:19:12.821Z,26.62
2019-05-14T22:21:41.919Z,20.55
2019-05-14T22:24:08.553Z,28.47
2019-05-14T22:26:35.496Z,23.62
2019-05-14T22:29:02.441Z,21.25
2019-05-14T22:31:29.454Z,22.98
2019-05-14T22:33:58.278Z,22.25
2019-05-14T22:36:25.138Z,12.18
2019-05-14T22:38:52.114Z,16.82
2019-05-14T22:41:19.043Z,16.62
2019-05-14T22:43:46.001Z,12.00
2019-05-14T22:46:12.959Z,10.63
2019-05-14T22:48:39.957Z,10.35
2019-05-14T22:51:08.671Z,9.53
2019-05-14T22:53:35.670Z,8.90
2019-05-14T22:56:02.634Z,8.45
2019-05-14T22:58:29.630Z,9.23
2019-05-14T23:04:11.085Z,5.78
2019-05-14T23:06:38.339Z,7.70
2019-05-14T23:09:05.634Z,6.25
2019-05-14T23:11:32.577Z,7.75
2019-05-14T23:13:59.529Z,9.33
2019-05-14T23:16:34.443Z,8.98
2019-05-14T23:18:55.249Z,12.63
2019-05-14T23:21:34.983Z,15.05
2019-05-14T23:24:01.961Z,11.03
2019-05-14T23:26:30.122Z,10.65
2019-05-14T23:28:58.713Z,14.45
2019-05-14T23:31:28.818Z,9.73
2019-05-14T23:34:15.389Z,10.15
2019-05-14T23:36:42.341Z,12.33
2019-05-14T23:39:09.294Z,9.28
2019-05-14T23:41:38.371Z,8.33
2019-05-14T23:44:05.481Z,9.18
2019-05-14T23:46:32.449Z,9.40
2019-05-14T23:48:59.517Z,8.55
2019-05-14T23:51:28.839Z,6.22
2019-05-14T23:53:55.213Z,9.65
2019-05-14T23:56:22.172Z,7.00
2019-05-14T23:58:57.664Z,9.75
